Time;durP1;ratioP1;P1;durP2;ratioP2;P2;SDS_P1;SDS_P2;PMS_P1;PMS_P2;Temp;Humidity;BMP_temperature;BMP_pressure;BME280_temperature;BME280_humidity;BME280_pressure;Samples;Min_cycle;Max_cycle;Signal;HPM_P1;HPM_P2
2021/09/15 00:01:27;;;;;;;12.10;8.73;;;21.10;99.90;;;;;;5084085;28;20028;-78
2021/09/15 00:03:53;;;;;;;11.32;10.23;;;21.20;99.90;;;;;;5101663;28;20032;-78
2021/09/15 00:06:19;;;;;;;13.02;10.80;;;21.20;99.90;;;;;;5104935;28;20023;-77
2021/09/15 00:08:45;;;;;;;10.35;9.55;;;21.20;99.90;;;;;;5097611;28;20039;-78
2021/09/15 00:11:12;;;;;;;10.48;9.48;;;21.20;99.90;;;;;;5089927;28;20028;-76
2021/09/15 00:13:39;;;;;;;11.63;10.40;;;21.20;99.90;;;;;;5100672;28;20382;-77
2021/09/15 00:16:05;;;;;;;13.15;9.88;;;21.10;99.90;;;;;;5093871;28;20012;-77
2021/09/15 00:18:32;;;;;;;9.52;8.63;;;21.00;99.90;;;;;;5113483;28;20104;-76
2021/09/15 00:20:57;;;;;;;16.40;9.55;;;21.00;99.90;;;;;;5109015;28;20081;-78
2021/09/15 00:23:23;;;;;;;16.10;9.75;;;21.00;99.90;;;;;;5118079;28;20023;-77
2021/09/15 00:25:49;;;;;;;12.05;10.82;;;21.00;99.90;;;;;;5110180;28;20017;-76
2021/09/15 00:28:15;;;;;;;14.40;10.18;;;21.10;99.90;;;;;;5083910;28;20116;-77
2021/09/15 00:30:41;;;;;;;13.30;10.50;;;21.10;99.90;;;;;;5098964;28;20037;-77
2021/09/15 00:33:07;;;;;;;23.63;10.10;;;21.10;99.90;;;;;;5085995;28;20047;-77
2021/09/15 00:35:33;;;;;;;14.40;9.38;;;21.10;99.90;;;;;;5097391;28;20028;-77
2021/09/15 00:37:58;;;;;;;10.65;9.55;;;21.10;99.90;;;;;;5110364;28;20035;-77
2021/09/15 00:40:24;;;;;;;10.68;9.60;;;21.20;99.90;;;;;;5100922;28;20083;-77
2021/09/15 00:42:50;;;;;;;11.30;10.20;;;21.20;99.90;;;;;;5103891;28;20035;-77
2021/09/15 00:45:16;;;;;;;10.63;9.73;;;21.20;99.90;;;;;;5105789;28;20060;-78
2021/09/15 00:47:42;;;;;;;12.80;9.00;;;21.20;99.90;;;;;;5092641;28;20243;-77
2021/09/15 00:50:09;;;;;;;18.38;12.10;;;21.10;99.90;;;;;;5105191;28;20024;-77
2021/09/15 00:52:35;;;;;;;12.60;9.80;;;21.10;99.90;;;;;;5105556;28;20083;-77
2021/09/15 00:55:01;;;;;;;10.00;9.00;;;21.10;99.90;;;;;;5099295;28;20100;-77
2021/09/15 00:57:26;;;;;;;10.13;9.07;;;21.10;99.90;;;;;;5092282;28;20099;-76
2021/09/15 00:59:52;;;;;;;10.30;9.40;;;21.10;99.90;;;;;;5099998;28;20016;-78
2021/09/15 01:02:18;;;;;;;10.15;8.98;;;21.20;99.90;;;;;;5096487;28;20047;-77
2021/09/15 01:04:44;;;;;;;10.77;8.48;;;21.30;99.90;;;;;;5091584;28;20048;-78
2021/09/15 01:07:11;;;;;;;9.77;8.60;;;21.30;99.90;;;;;;5106479;28;20020;-77
2021/09/15 01:09:37;;;;;;;10.13;9.23;;;21.40;99.90;;;;;;5105029;28;20028;-77
2021/09/15 01:12:03;;;;;;;10.18;9.27;;;21.30;99.90;;;;;;5092518;28;20055;-78
2021/09/15 01:14:29;;;;;;;12.43;9.55;;;21.30;99.90;;;;;;5090599;28;20029;-77
2021/09/15 01:16:58;;;;;;;10.65;9.48;;;21.30;99.90;;;;;;5098461;28;20041;-79
2021/09/15 01:19:25;;;;;;;10.13;9.05;;;21.30;99.90;;;;;;5068428;28;20024;-77
2021/09/15 01:21:52;;;;;;;9.13;8.25;;;21.30;99.90;;;;;;5090272;28;20165;-77
2021/09/15 01:24:19;;;;;;;9.55;8.65;;;21.30;99.90;;;;;;5091799;28;20023;-76
2021/09/15 01:26:45;;;;;;;9.50;8.60;;;21.30;99.90;;;;;;5078552;28;20036;-78
2021/09/15 01:29:18;;;;;;;8.93;8.23;;;21.30;99.90;;;;;;5070460;28;20028;-79
2021/09/15 01:31:59;;;;;;;9.75;8.98;;;21.30;99.90;;;;;;5092255;28;20053;-77
2021/09/15 01:34:26;;;;;;;10.85;9.70;;;21.30;99.90;;;;;;5088741;28;20298;-77
2021/09/15 01:36:52;;;;;;;11.38;8.65;;;21.30;99.90;;;;;;5099116;28;20023;-77
2021/09/15 01:39:18;;;;;;;11.52;7.93;;;21.30;99.90;;;;;;5109261;28;20065;-77
2021/09/15 01:41:44;;;;;;;10.65;9.73;;;21.20;99.90;;;;;;5086913;28;20029;-77
2021/09/15 01:44:10;;;;;;;9.90;8.98;;;21.20;99.90;;;;;;5099879;28;20031;-76
2021/09/15 01:46:36;;;;;;;9.93;9.13;;;21.30;99.90;;;;;;5103231;28;20240;-79
2021/09/15 01:49:01;;;;;;;9.98;7.47;;;21.30;99.90;;;;;;5112081;28;20073;-78
2021/09/15 01:51:27;;;;;;;9.35;8.60;;;21.20;99.90;;;;;;5095138;28;20028;-78
2021/09/15 01:53:53;;;;;;;9.23;8.48;;;21.20;99.90;;;;;;5104423;28;20028;-77
2021/09/15 01:56:18;;;;;;;8.63;7.82;;;21.30;99.90;;;;;;5100233;28;20023;-77
2021/09/15 01:58:44;;;;;;;11.65;8.10;;;21.30;99.90;;;;;;5093927;28;20095;-77
2021/09/15 02:01:10;;;;;;;10.85;8.55;;;21.30;99.90;;;;;;5109553;28;20019;-77
2021/09/15 02:03:36;;;;;;;13.95;8.35;;;21.30;99.90;;;;;;5088561;28;20488;-77
2021/09/15 02:06:02;;;;;;;9.93;9.00;;;21.30;99.90;;;;;;5105788;28;20362;-77
2021/09/15 02:08:28;;;;;;;10.20;8.70;;;21.10;99.90;;;;;;5106700;28;20034;-80
2021/09/15 02:10:53;;;;;;;9.40;8.60;;;21.00;99.90;;;;;;5101208;28;20161;-77
2021/09/15 02:13:19;;;;;;;9.55;8.70;;;20.90;99.90;;;;;;5110618;28;20028;-77
2021/09/15 02:15:45;;;;;;;9.80;8.80;;;20.80;99.90;;;;;;5098834;28;20028;-77
2021/09/15 02:18:11;;;;;;;10.63;8.27;;;20.80;99.90;;;;;;5103411;28;20036;-77
2021/09/15 02:20:38;;;;;;;12.45;8.70;;;20.70;99.90;;;;;;5102703;28;20108;-77
2021/09/15 02:23:04;;;;;;;12.88;9.07;;;20.70;99.90;;;;;;5105161;28;20110;-77
2021/09/15 02:25:29;;;;;;;8.23;7.22;;;20.60;99.90;;;;;;5107694;28;20105;-77
2021/09/15 02:27:55;;;;;;;11.50;8.85;;;20.50;99.90;;;;;;5093025;28;20024;-76
2021/09/15 02:30:21;;;;;;;9.40;8.20;;;20.50;99.90;;;;;;5101333;28;20031;-77
2021/09/15 02:32:47;;;;;;;10.20;7.45;;;20.50;99.90;;;;;;5090399;28;20115;-78
2021/09/15 02:35:13;;;;;;;9.70;8.13;;;20.40;99.90;;;;;;5077429;28;20043;-78
2021/09/15 02:37:39;;;;;;;15.02;8.27;;;20.50;99.90;;;;;;5090921;28;20407;-77
2021/09/15 02:40:06;;;;;;;9.93;8.90;;;20.50;99.90;;;;;;5091605;28;20505;-77
2021/09/15 02:42:32;;;;;;;9.60;8.63;;;20.40;99.90;;;;;;5097784;28;20114;-76
2021/09/15 02:44:58;;;;;;;8.55;7.85;;;20.50;99.90;;;;;;5108924;28;20038;-77
2021/09/15 02:47:24;;;;;;;11.65;7.35;;;20.40;99.90;;;;;;5104938;28;20019;-76
2021/09/15 02:49:50;;;;;;;8.90;7.65;;;20.50;99.90;;;;;;5101617;28;20032;-77
2021/09/15 02:52:16;;;;;;;8.82;7.28;;;20.50;99.90;;;;;;5087268;28;20095;-77
2021/09/15 02:54:41;;;;;;;8.40;7.68;;;20.50;99.90;;;;;;5110149;28;20022;-78
2021/09/15 02:57:07;;;;;;;11.30;6.20;;;20.60;99.90;;;;;;5098672;28;20024;-77
2021/09/15 02:59:33;;;;;;;12.63;6.93;;;20.70;99.90;;;;;;5092560;28;20028;-77
2021/09/15 03:01:59;;;;;;;7.50;6.57;;;20.70;99.90;;;;;;5098586;28;20083;-77
2021/09/15 03:04:24;;;;;;;7.70;6.95;;;20.70;99.90;;;;;;5107647;28;20039;-77
2021/09/15 03:06:51;;;;;;;12.10;7.32;;;20.80;99.90;;;;;;5104096;28;20141;-78
2021/09/15 03:09:17;;;;;;;7.10;6.50;;;20.90;99.90;;;;;;5106423;28;20056;-77
2021/09/15 03:11:43;;;;;;;9.95;6.65;;;20.90;99.90;;;;;;5096411;28;20128;-79
2021/09/15 03:14:09;;;;;;;8.02;7.30;;;21.00;99.90;;;;;;5091846;28;20027;-79
2021/09/15 03:16:34;;;;;;;7.88;7.18;;;20.90;99.90;;;;;;5072254;28;20505;-77
2021/09/15 03:19:00;;;;;;;7.63;6.97;;;20.90;99.90;;;;;;5097598;28;20024;-77
2021/09/15 03:21:26;;;;;;;8.60;7.07;;;20.90;99.90;;;;;;5105913;28;20023;-77
2021/09/15 03:23:52;;;;;;;7.22;6.63;;;20.90;99.90;;;;;;5100904;28;20474;-77
2021/09/15 03:26:18;;;;;;;7.90;6.57;;;20.90;99.90;;;;;;5094140;28;20028;-78
2021/09/15 03:28:44;;;;;;;7.50;6.78;;;20.80;99.90;;;;;;5077836;28;20033;-78
2021/09/15 03:31:09;;;;;;;7.40;6.82;;;20.80;99.90;;;;;;5095895;28;20030;-77
2021/09/15 03:33:35;;;;;;;17.77;7.32;;;20.80;99.90;;;;;;5114578;28;20160;-77
2021/09/15 03:36:01;;;;;;;6.63;6.10;;;20.90;99.90;;;;;;5099458;28;20031;-78
2021/09/15 03:38:27;;;;;;;9.93;6.25;;;20.90;99.90;;;;;;5100413;28;20047;-77
2021/09/15 03:40:53;;;;;;;8.30;7.20;;;20.80;99.90;;;;;;5100021;28;20032;-77
2021/09/15 03:43:19;;;;;;;6.95;6.35;;;20.90;99.90;;;;;;5101642;28;20043;-76
2021/09/15 03:45:45;;;;;;;6.72;6.13;;;20.80;99.90;;;;;;5090983;28;20158;-77
2021/09/15 03:48:10;;;;;;;6.72;6.13;;;20.90;99.90;;;;;;5074201;28;20115;-78
2021/09/15 03:50:36;;;;;;;7.47;6.63;;;20.70;99.90;;;;;;5105387;28;20024;-77
2021/09/15 03:53:02;;;;;;;9.52;6.50;;;20.60;99.90;;;;;;5106643;28;20020;-77
2021/09/15 03:55:28;;;;;;;9.32;7.35;;;20.60;99.90;;;;;;5097378;28;20506;-78
2021/09/15 03:57:53;;;;;;;8.30;6.53;;;20.50;99.90;;;;;;5104281;28;20512;-79
2021/09/15 04:00:19;;;;;;;8.25;7.60;;;20.50;99.90;;;;;;5105933;28;20102;-78
2021/09/15 04:02:45;;;;;;;7.93;7.20;;;20.40;99.90;;;;;;5112098;28;20028;-77
2021/09/15 04:05:11;;;;;;;9.25;6.65;;;20.40;99.90;;;;;;5089204;28;20103;-77
2021/09/15 04:07:39;;;;;;;10.00;6.95;;;20.40;99.90;;;;;;5075185;28;20082;-77
2021/09/15 04:10:05;;;;;;;7.45;6.75;;;20.50;99.90;;;;;;5102361;28;20111;-77
2021/09/15 04:12:31;;;;;;;7.00;6.40;;;20.50;99.90;;;;;;5095839;28;20390;-76
2021/09/15 04:14:57;;;;;;;10.48;7.35;;;20.40;99.90;;;;;;5099469;28;20019;-77
2021/09/15 04:17:23;;;;;;;7.15;6.45;;;20.40;99.90;;;;;;5112481;28;20061;-77
2021/09/15 04:19:48;;;;;;;7.38;6.78;;;20.40;99.90;;;;;;5112187;28;20068;-77
2021/09/15 04:22:19;;;;;;;8.75;7.50;;;20.40;99.90;;;;;;5094785;28;21191;-78
2021/09/15 04:33:01;;;;;;;11.25;8.25;;;20.20;99.90;;;;;;5116981;28;20511;-78
2021/09/15 04:35:28;;;;;;;12.15;7.40;;;20.30;99.90;;;;;;5101117;28;20099;-77
2021/09/15 04:37:54;;;;;;;34.78;13.07;;;20.30;99.90;;;;;;5093355;28;20058;-77
2021/09/15 04:40:20;;;;;;;33.40;12.27;;;20.30;99.90;;;;;;5058619;28;20040;-77
2021/09/15 04:42:46;;;;;;;21.20;9.23;;;20.30;99.90;;;;;;5097535;28;20402;-79
2021/09/15 04:45:12;;;;;;;50.88;15.95;;;20.30;99.90;;;;;;5097239;28;20539;-77
2021/09/15 04:47:37;;;;;;;32.75;12.55;;;20.20;99.90;;;;;;5107054;28;20027;-77
2021/09/15 04:50:04;;;;;;;12.85;8.15;;;20.10;99.90;;;;;;5098281;28;20481;-77
2021/09/15 04:52:30;;;;;;;24.58;11.48;;;20.20;99.90;;;;;;5091952;28;20427;-78
2021/09/15 04:54:55;;;;;;;22.48;9.98;;;20.20;99.90;;;;;;5095528;28;20023;-76
2021/09/15 04:57:21;;;;;;;41.72;14.65;;;20.10;99.90;;;;;;5091850;28;20035;-77
2021/09/15 04:59:47;;;;;;;49.72;17.00;;;20.10;99.90;;;;;;5083585;28;20024;-77
2021/09/15 05:02:13;;;;;;;67.78;20.67;;;20.10;99.90;;;;;;5103012;28;20397;-77
2021/09/15 05:04:39;;;;;;;24.30;11.10;;;20.00;99.90;;;;;;5085075;28;20032;-76
2021/09/15 05:07:05;;;;;;;16.30;8.68;;;20.00;99.90;;;;;;5102113;28;20024;-77
2021/09/15 05:09:30;;;;;;;29.02;11.25;;;19.90;99.90;;;;;;5110767;28;20526;-78
2021/09/15 05:11:56;;;;;;;19.85;9.73;;;19.90;99.90;;;;;;5085039;28;20028;-77
2021/09/15 05:14:22;;;;;;;9.82;7.60;;;20.00;99.90;;;;;;5101265;28;20027;-76
2021/09/15 05:16:48;;;;;;;18.77;9.20;;;20.00;99.90;;;;;;5099164;28;20024;-76
2021/09/15 05:19:13;;;;;;;13.43;8.82;;;20.10;99.90;;;;;;5089281;28;20032;-76
2021/09/15 05:21:39;;;;;;;11.55;7.00;;;20.00;99.90;;;;;;5105602;28;20125;-77
2021/09/15 05:24:05;;;;;;;12.20;7.10;;;20.10;99.90;;;;;;5105183;28;20028;-76
2021/09/15 05:26:31;;;;;;;14.98;7.93;;;20.10;99.90;;;;;;5099859;28;20035;-77
2021/09/15 05:28:57;;;;;;;21.48;9.80;;;20.20;99.90;;;;;;5092419;28;20031;-76
2021/09/15 05:31:23;;;;;;;11.55;7.60;;;20.30;99.90;;;;;;5094046;28;20100;-77
2021/09/15 05:33:49;;;;;;;10.93;8.18;;;20.30;99.90;;;;;;5093738;28;20025;-77
2021/09/15 05:36:14;;;;;;;9.70;8.77;;;20.50;99.90;;;;;;5084052;28;20024;-77
2021/09/15 05:38:40;;;;;;;23.42;15.27;;;20.60;99.90;;;;;;5086619;28;20032;-78
2021/09/15 05:41:06;;;;;;;16.67;10.00;;;20.70;99.90;;;;;;5084568;28;20043;-77
2021/09/15 05:43:33;;;;;;;18.02;9.32;;;20.80;99.90;;;;;;5097329;28;20051;-77
2021/09/15 05:46:00;;;;;;;11.25;7.68;;;20.90;99.90;;;;;;5107522;28;20031;-77
2021/09/15 05:48:25;;;;;;;8.88;7.90;;;20.90;99.90;;;;;;5106335;28;20034;-78
2021/09/15 05:50:52;;;;;;;10.73;9.57;;;20.90;99.90;;;;;;5108480;28;20028;-77
2021/09/15 05:53:17;;;;;;;15.40;8.30;;;21.00;99.90;;;;;;5116188;28;20048;-78
2021/09/15 05:55:43;;;;;;;13.88;8.38;;;21.00;99.90;;;;;;5107462;28;20032;-78
2021/09/15 05:58:09;;;;;;;16.25;7.97;;;21.00;99.90;;;;;;5108109;28;20484;-76
2021/09/15 06:00:35;;;;;;;11.30;8.65;;;21.00;99.90;;;;;;5092270;28;20333;-76
2021/09/15 06:03:01;;;;;;;21.60;9.85;;;21.10;99.90;;;;;;5097890;28;20105;-77
2021/09/15 06:05:26;;;;;;;9.93;8.90;;;21.20;99.90;;;;;;5065283;28;20502;-77
2021/09/15 06:07:52;;;;;;;18.58;9.02;;;21.20;99.90;;;;;;5092761;28;20148;-77
2021/09/15 06:10:18;;;;;;;16.83;9.98;;;21.30;99.90;;;;;;5076401;28;20028;-77
2021/09/15 06:12:44;;;;;;;13.65;9.50;;;21.50;99.90;;;;;;5094422;28;20039;-77
2021/09/15 06:15:10;;;;;;;22.08;9.88;;;21.60;99.90;;;;;;5086527;28;20032;-78
2021/09/15 06:17:36;;;;;;;16.25;9.90;;;21.70;99.90;;;;;;5092027;28;20020;-77
2021/09/15 06:20:02;;;;;;;18.33;9.45;;;21.80;99.90;;;;;;5092114;28;21272;-76
2021/09/15 06:22:28;;;;;;;17.20;9.30;;;21.80;99.90;;;;;;5095844;28;20157;-77
2021/09/15 06:24:54;;;;;;;11.27;9.43;;;21.80;99.90;;;;;;5093316;28;20047;-79
2021/09/15 06:27:24;;;;;;;12.85;8.60;;;21.90;99.90;;;;;;5092518;28;20199;-78
2021/09/15 06:29:50;;;;;;;15.20;8.88;;;21.90;99.90;;;;;;5094303;28;20103;-76
2021/09/15 06:32:20;;;;;;;16.00;9.27;;;22.00;99.90;;;;;;5091890;28;20439;-76
2021/09/15 06:34:46;;;;;;;20.70;10.30;;;22.10;99.90;;;;;;5093158;28;20454;-77
2021/09/15 06:37:16;;;;;;;10.52;8.75;;;22.10;99.90;;;;;;5093675;28;20111;-77
2021/09/15 06:39:42;;;;;;;23.40;9.60;;;22.20;99.90;;;;;;5088308;28;20035;-77
2021/09/15 06:42:08;;;;;;;12.77;8.75;;;22.30;99.90;;;;;;5093229;28;20035;-77
2021/09/15 06:44:34;;;;;;;21.58;9.88;;;22.40;99.90;;;;;;5093447;28;20028;-77
2021/09/15 06:47:00;;;;;;;11.50;8.63;;;22.50;99.90;;;;;;5103865;28;20043;-76
2021/09/15 06:49:26;;;;;;;16.33;9.38;;;22.60;99.90;;;;;;5102106;28;20032;-77
2021/09/15 06:51:52;;;;;;;21.75;9.13;;;22.60;99.90;;;;;;5112501;28;20051;-77
2021/09/15 06:54:48;;;;;;;;;;;;;;;;;;;;;
2021/09/15 06:57:16;;;;;;;14.65;9.82;;;22.70;99.90;;;;;;5105494;28;20032;-76
2021/09/15 06:59:42;;;;;;;19.98;10.15;;;22.90;99.90;;;;;;5109288;28;20028;-76
2021/09/15 07:02:07;;;;;;;11.30;9.77;;;23.00;99.90;;;;;;5082939;28;20107;-77
2021/09/15 07:04:33;;;;;;;11.02;9.13;;;23.00;99.90;;;;;;5073991;28;20110;-77
2021/09/15 07:06:59;;;;;;;13.85;8.48;;;23.10;99.90;;;;;;5099725;28;20408;-77
2021/09/15 07:09:25;;;;;;;14.75;9.35;;;23.20;99.90;;;;;;5092943;28;20035;-77
2021/09/15 07:11:50;;;;;;;13.23;8.75;;;23.30;99.90;;;;;;5094913;28;20062;-78
2021/09/15 07:14:16;;;;;;;14.25;9.82;;;23.40;99.90;;;;;;5099434;28;20117;-76
2021/09/15 07:16:42;;;;;;;16.60;9.25;;;23.50;99.90;;;;;;5095446;28;20030;-77
2021/09/15 07:19:09;;;;;;;13.40;8.68;;;23.60;99.90;;;;;;5103649;28;20020;-77
2021/09/15 07:21:35;;;;;;;19.42;10.27;;;23.70;99.90;;;;;;5075608;28;20069;-78
2021/09/15 07:24:01;;;;;;;13.18;8.90;;;23.80;99.90;;;;;;5088953;28;20019;-76
2021/09/15 07:26:27;;;;;;;26.27;8.63;;;23.90;99.90;;;;;;5084445;28;20029;-76
2021/09/15 07:28:54;;;;;;;22.88;10.13;;;24.00;99.90;;;;;;5083338;28;20051;-76
2021/09/15 07:31:20;;;;;;;14.63;10.10;;;24.20;99.90;;;;;;5084194;28;20046;-77
2021/09/15 07:33:46;;;;;;;15.20;9.70;;;24.20;99.90;;;;;;5093269;28;20111;-76
2021/09/15 07:36:12;;;;;;;14.93;8.38;;;24.40;99.90;;;;;;5093417;28;20063;-77
2021/09/15 07:38:38;;;;;;;11.20;7.95;;;24.50;99.90;;;;;;5073989;28;20111;-74
2021/09/15 07:41:04;;;;;;;15.95;9.50;;;24.60;99.90;;;;;;5083872;28;20525;-79
2021/09/15 07:43:30;;;;;;;11.95;7.30;;;24.50;99.90;;;;;;5059339;28;20505;-78
2021/09/15 07:45:56;;;;;;;17.42;8.68;;;24.60;99.90;;;;;;5088599;28;20390;-78
2021/09/15 07:48:22;;;;;;;16.05;8.90;;;24.60;99.90;;;;;;5096788;28;20113;-79
2021/09/15 07:50:50;;;;;;;31.45;9.57;;;24.60;99.90;;;;;;5086017;28;20111;-78
2021/09/15 07:53:16;;;;;;;29.55;9.57;;;24.60;99.90;;;;;;5096146;28;20051;-79
2021/09/15 07:55:42;;;;;;;24.48;9.45;;;24.70;99.90;;;;;;5094967;28;20065;-78
2021/09/15 07:58:08;;;;;;;18.13;7.43;;;24.80;99.90;;;;;;5093265;28;20020;-78
2021/09/15 08:00:34;;;;;;;18.80;7.70;;;24.60;99.90;;;;;;5093473;28;20056;-79
2021/09/15 08:03:00;;;;;;;18.13;9.70;;;24.60;99.90;;;;;;5093813;28;20316;-78
2021/09/15 08:05:26;;;;;;;17.02;8.23;;;24.60;99.90;;;;;;5084061;28;20039;-77
2021/09/15 08:07:51;;;;;;;11.27;7.50;;;24.70;99.90;;;;;;5072307;28;20041;-78
2021/09/15 08:10:17;;;;;;;11.18;6.47;;;24.60;99.90;;;;;;5079092;28;20024;-77
2021/09/15 08:12:43;;;;;;;13.48;7.28;;;24.70;99.90;;;;;;5097150;28;20097;-78
2021/09/15 08:15:09;;;;;;;8.82;6.90;;;24.70;99.90;;;;;;5096695;28;20016;-78
2021/09/15 08:17:38;;;;;;;13.75;7.57;;;24.70;99.90;;;;;;5097175;28;20016;-78
2021/09/15 08:20:05;;;;;;;10.95;9.73;;;24.80;99.90;;;;;;5093588;28;20076;-78
2021/09/15 08:22:31;;;;;;;13.75;9.15;;;24.80;99.90;;;;;;5094106;28;20028;-78
2021/09/15 08:24:57;;;;;;;10.90;9.75;;;24.90;99.90;;;;;;5078656;28;20028;-77
2021/09/15 08:27:23;;;;;;;8.32;7.53;;;24.90;99.90;;;;;;5077254;28;20123;-77
2021/09/15 08:29:49;;;;;;;10.35;7.75;;;24.90;99.90;;;;;;5094498;28;20057;-77
2021/09/15 08:32:15;;;;;;;14.07;7.75;;;24.90;99.90;;;;;;5057361;28;20059;-77
2021/09/15 08:34:41;;;;;;;13.40;7.47;;;24.90;99.90;;;;;;5075314;28;20454;-77
2021/09/15 08:37:07;;;;;;;12.15;7.13;;;24.90;99.90;;;;;;5074829;28;20035;-78
2021/09/15 08:39:32;;;;;;;16.00;7.80;;;25.00;99.90;;;;;;5075375;28;20032;-78
2021/09/15 08:41:58;;;;;;;9.73;7.03;;;25.00;99.90;;;;;;5094133;28;20086;-78
2021/09/15 08:44:24;;;;;;;7.57;6.85;;;25.10;99.90;;;;;;5076840;28;20020;-78
2021/09/15 08:46:56;;;;;;;12.68;7.47;;;25.10;99.90;;;;;;5079438;28;20040;-78
2021/09/15 08:49:23;;;;;;;8.25;6.97;;;25.30;99.90;;;;;;5073528;28;20020;-78
2021/09/15 08:51:49;;;;;;;12.20;8.00;;;25.30;99.90;;;;;;5085886;28;20027;-78
2021/09/15 08:54:15;;;;;;;8.57;7.22;;;25.30;99.90;;;;;;5075784;28;20031;-77
2021/09/15 08:56:42;;;;;;;13.30;7.45;;;25.30;99.90;;;;;;5095637;28;20020;-77
2021/09/15 08:59:07;;;;;;;12.60;7.85;;;25.30;99.90;;;;;;5085630;28;20397;-77
2021/09/15 09:01:33;;;;;;;14.65;7.82;;;25.40;99.90;;;;;;5080058;28;20105;-77
2021/09/15 09:03:59;;;;;;;14.35;9.20;;;25.40;99.90;;;;;;5077391;28;20025;-78
2021/09/15 09:06:30;;;;;;;13.70;8.43;;;25.60;99.90;;;;;;5088534;28;20047;-77
2021/09/15 09:08:57;;;;;;;11.35;8.00;;;25.60;99.90;;;;;;5107894;28;20030;-77
2021/09/15 09:11:25;;;;;;;10.75;8.23;;;25.70;99.90;;;;;;5094085;28;20465;-77
2021/09/15 09:13:53;;;;;;;8.15;7.35;;;25.80;99.90;;;;;;5078158;28;20021;-75
2021/09/15 09:16:42;;;;;;;9.48;6.93;;;25.70;99.90;;;;;;5076842;28;20021;-77
2021/09/15 09:19:13;;;;;;;8.98;7.57;;;25.80;99.90;;;;;;5076355;28;20734;-78
2021/09/15 09:21:41;;;;;;;10.25;8.43;;;25.70;99.90;;;;;;5072193;28;20036;-77
2021/09/15 09:24:10;;;;;;;13.15;8.05;;;25.60;99.90;;;;;;5101831;28;20032;-77
2021/09/15 09:26:51;;;;;;;12.68;9.02;;;25.60;99.90;;;;;;5086721;28;20102;-77
2021/09/15 09:29:25;;;;;;;14.23;10.30;;;25.60;99.90;;;;;;5078935;28;20035;-77
2021/09/15 09:32:03;;;;;;;13.02;9.20;;;25.70;99.90;;;;;;5096134;28;20101;-77
2021/09/15 09:34:31;;;;;;;12.32;11.02;;;25.70;99.90;;;;;;5079330;28;20050;-76
2021/09/15 09:37:05;;;;;;;18.05;10.35;;;25.70;99.90;;;;;;5076835;28;20024;-76
2021/09/15 09:39:50;;;;;;;12.60;9.98;;;25.60;99.90;;;;;;5095175;28;20039;-76
2021/09/15 09:42:22;;;;;;;15.32;10.82;;;25.60;99.90;;;;;;5077302;28;20386;-76
2021/09/15 09:44:49;;;;;;;14.88;11.32;;;25.60;99.90;;;;;;5074776;28;20556;-77
2021/09/15 09:47:19;;;;;;;15.32;11.07;;;25.60;99.90;;;;;;5074968;28;20479;-76
2021/09/15 09:50:02;;;;;;;12.38;11.05;;;25.60;99.90;;;;;;5056822;28;20066;-76
2021/09/15 09:52:28;;;;;;;13.30;12.07;;;25.50;99.90;;;;;;5095661;28;20027;-76
2021/09/15 09:55:01;;;;;;;14.70;11.27;;;25.50;99.90;;;;;;5093493;28;20672;-76
2021/09/15 09:57:27;;;;;;;12.23;11.02;;;25.60;99.90;;;;;;5094740;28;20050;-77
2021/09/15 09:59:54;;;;;;;13.40;11.85;;;25.60;99.90;;;;;;5085771;28;20433;-76
2021/09/15 10:02:20;;;;;;;17.13;11.82;;;25.40;99.90;;;;;;5093127;28;20101;-76
2021/09/15 10:04:47;;;;;;;24.63;13.25;;;25.50;99.90;;;;;;5094236;28;20095;-76
2021/09/15 10:07:15;;;;;;;15.82;10.50;;;25.60;99.90;;;;;;5094098;28;20044;-76
2021/09/15 10:09:43;;;;;;;21.55;11.32;;;25.60;99.90;;;;;;5086695;28;20442;-76
2021/09/15 10:12:12;;;;;;;14.43;10.80;;;25.70;99.90;;;;;;5073951;28;20035;-76
2021/09/15 10:14:39;;;;;;;13.15;9.98;;;25.80;99.90;;;;;;5074740;28;20021;-76
2021/09/15 10:17:10;;;;;;;14.57;11.40;;;25.80;99.90;;;;;;5074634;28;20017;-76
2021/09/15 10:19:40;;;;;;;13.15;10.30;;;25.90;99.90;;;;;;5094328;28;20020;-77
2021/09/15 10:22:07;;;;;;;11.38;9.00;;;26.10;99.90;;;;;;5094080;28;20165;-76
2021/09/15 10:24:48;;;;;;;11.38;10.18;;;26.30;99.90;;;;;;5094292;28;20039;-77
2021/09/15 10:27:22;;;;;;;12.95;10.07;;;26.40;99.90;;;;;;5092186;28;20024;-76
2021/09/15 10:30:07;;;;;;;17.73;11.52;;;26.60;99.90;;;;;;5086119;28;20027;-77
2021/09/15 10:32:35;;;;;;;11.18;10.18;;;26.50;99.90;;;;;;5102754;28;20024;-77
2021/09/15 10:35:05;;;;;;;11.90;10.88;;;26.50;99.90;;;;;;5092653;28;20161;-76
2021/09/15 10:37:30;;;;;;;14.07;12.40;;;26.60;99.90;;;;;;5093487;28;20508;-78
2021/09/15 10:40:00;;;;;;;15.85;10.02;;;26.50;99.90;;;;;;5094121;28;20028;-76
2021/09/15 10:42:52;;;;;;;13.48;10.82;;;26.70;99.90;;;;;;5090088;28;20032;-77
2021/09/15 10:45:29;;;;;;;11.90;10.73;;;26.70;99.90;;;;;;5081352;28;20043;-76
2021/09/15 10:47:58;;;;;;;11.88;10.55;;;26.80;99.90;;;;;;5097377;28;20440;-84
2021/09/15 10:50:30;;;;;;;13.07;9.18;;;26.90;99.90;;;;;;5084507;28;20032;-76
2021/09/15 10:53:08;;;;;;;15.70;9.18;;;27.10;99.90;;;;;;5087865;28;20445;-76
2021/09/15 10:55:44;;;;;;;14.18;10.48;;;27.00;99.90;;;;;;5094576;28;20020;-77
2021/09/15 10:58:11;;;;;;;22.17;10.82;;;26.80;99.90;;;;;;5075903;28;20513;-76
2021/09/15 11:01:01;;;;;;;25.05;14.05;;;26.90;99.90;;;;;;5091961;28;20043;-77
2021/09/15 11:03:32;;;;;;;13.82;12.52;;;26.90;99.90;;;;;;5088515;28;20024;-77
2021/09/15 11:06:17;;;;;;;;;;;26.90;99.90;;;;;;5081407;28;20084;-77
2021/09/15 11:08:56;;;;;;;13.73;12.52;;;26.90;99.90;;;;;;5095454;28;20350;-77
2021/09/15 11:11:22;;;;;;;19.13;12.80;;;26.90;99.90;;;;;;5095674;28;20470;-77
2021/09/15 11:14:07;;;;;;;13.65;12.23;;;26.70;99.90;;;;;;5095398;28;20028;-77
2021/09/15 11:16:34;;;;;;;12.52;11.23;;;26.70;99.90;;;;;;5096050;28;20024;-78
2021/09/15 11:19:17;;;;;;;13.35;12.02;;;26.70;99.90;;;;;;5091536;28;20028;-78
2021/09/15 11:21:54;;;;;;;13.60;11.32;;;26.70;99.90;;;;;;5081345;28;20032;-78
2021/09/15 11:24:23;;;;;;;14.25;12.30;;;26.80;99.90;;;;;;5074597;28;20107;-77
2021/09/15 11:27:04;;;;;;;15.00;11.63;;;26.70;99.90;;;;;;5064168;28;20024;-77
2021/09/15 11:29:42;;;;;;;22.60;12.67;;;26.90;99.90;;;;;;5095118;28;20031;-77
2021/09/15 11:32:14;;;;;;;13.73;12.43;;;27.10;99.90;;;;;;5091900;28;20039;-77
2021/09/15 11:34:41;;;;;;;;;;;27.00;99.90;;;;;;5086823;28;20024;-77
2021/09/15 11:37:26;;;;;;;15.45;11.18;;;26.90;99.90;;;;;;5077387;28;20271;-78
2021/09/15 11:40:05;;;;;;;14.57;13.23;;;27.00;99.90;;;;;;5081712;28;20020;-77
2021/09/15 11:42:35;;;;;;;12.85;11.65;;;27.10;99.90;;;;;;5083696;28;20023;-77
2021/09/15 11:45:23;;;;;;;11.50;10.57;;;27.30;99.90;;;;;;5076022;28;20025;-77
2021/09/15 11:47:54;;;;;;;14.90;12.55;;;27.30;99.90;;;;;;5094255;28;20075;-77
2021/09/15 11:50:30;;;;;;;19.67;14.53;;;27.20;99.90;;;;;;5099205;28;20622;-76
2021/09/15 11:53:10;;;;;;;15.07;12.05;;;26.70;99.90;;;;;;5094275;28;20440;-77
2021/09/15 11:55:42;;;;;;;19.48;13.65;;;26.50;99.90;;;;;;5090995;28;20032;-77
2021/09/15 11:58:08;;;;;;;;;;;26.30;99.90;;;;;;5098013;28;20024;-77
2021/09/15 12:00:39;;;;;;;16.67;14.70;;;26.10;99.90;;;;;;5078327;28;20320;-77
2021/09/15 12:03:06;;;;;;;16.27;14.93;;;26.00;99.90;;;;;;5093630;28;20052;-79
2021/09/15 12:05:32;;;;;;;17.20;15.27;;;25.90;99.90;;;;;;5103784;28;20032;-79
2021/09/15 12:07:59;;;;;;;18.17;16.70;;;25.70;99.90;;;;;;5098912;28;20048;-78
2021/09/15 12:10:26;;;;;;;18.70;17.02;;;25.60;99.90;;;;;;5096632;28;20024;-78
2021/09/15 12:12:57;;;;;;;20.65;18.48;;;25.50;99.90;;;;;;5084404;28;20020;-77
2021/09/15 12:15:22;;;;;;;19.70;18.20;;;25.30;99.90;;;;;;5094537;28;20506;-77
2021/09/15 12:17:59;;;;;;;20.15;18.50;;;25.20;99.90;;;;;;5078996;28;20108;-78
2021/09/15 12:20:43;;;;;;;24.25;20.05;;;25.20;99.90;;;;;;5085611;28;20547;-77
2021/09/15 12:23:10;;;;;;;24.83;22.38;;;25.10;99.90;;;;;;5095385;28;20028;-79
2021/09/15 12:25:38;;;;;;;22.48;20.55;;;25.00;99.90;;;;;;5074313;28;20031;-79
2021/09/15 12:28:04;;;;;;;23.60;21.25;;;25.00;99.90;;;;;;5095945;28;20024;-77
2021/09/15 12:30:30;;;;;;;23.95;21.75;;;25.10;99.90;;;;;;5099544;28;20038;-77
2021/09/15 12:32:58;;;;;;;24.58;21.05;;;25.30;99.90;;;;;;5079168;28;20382;-77
2021/09/15 12:35:33;;;;;;;23.83;21.48;;;25.60;99.90;;;;;;5088772;28;20500;-77
2021/09/15 12:38:00;;;;;;;22.45;20.38;;;25.70;99.90;;;;;;5089420;28;20028;-78
2021/09/15 12:40:26;;;;;;;25.17;22.92;;;25.80;99.90;;;;;;5089458;28;20094;-77
2021/09/15 12:43:02;;;;;;;24.80;22.45;;;25.80;99.90;;;;;;5086809;28;20444;-78
2021/09/15 12:45:29;;;;;;;21.90;20.17;;;25.90;99.90;;;;;;5086716;28;20137;-77
2021/09/15 12:47:55;;;;;;;23.77;21.52;;;25.80;99.90;;;;;;5088250;28;20021;-78
2021/09/15 12:50:26;;;;;;;26.00;23.83;;;25.70;99.90;;;;;;5085540;28;20028;-77